Time;durP1;ratioP1;P1;durP2;ratioP2;P2;SDS_P1;SDS_P2;PMS_P1;PMS_P2;Temp;Humidity;BMP_temperature;BMP_pressure;BME280_temperature;BME280_humidity;BME280_pressure;Samples;Min_cycle;Max_cycle;Signal;HPM_P1;HPM_P2
2023/09/11 00:00:34;;;;;;;9.90;6.20;;;;;;;24.58;70.99;100221.69;5062887;28;20188;-73
2023/09/11 00:02:59;;;;;;;8.87;5.90;;;;;;;24.56;71.28;100215.50;5069775;28;20708;-73
2023/09/11 00:05:25;;;;;;;7.90;5.87;;;;;;;24.56;70.69;100218.38;5050138;28;20202;-74
2023/09/11 00:07:50;;;;;;;7.50;6.37;;;;;;;24.57;70.80;100213.41;5034770;28;20187;-73
2023/09/11 00:10:16;;;;;;;7.13;5.80;;;;;;;24.55;71.23;100210.97;5050461;28;20254;-73
2023/09/11 00:12:41;;;;;;;6.20;5.20;;;;;;;24.56;71.24;100209.72;5049971;28;20563;-73
2023/09/11 00:15:07;;;;;;;7.83;5.60;;;;;;;24.56;71.06;100206.00;5048295;28;20195;-73
2023/09/11 00:17:32;;;;;;;7.67;5.83;;;;;;;24.56;71.11;100208.88;5047760;28;20550;-73
2023/09/11 00:19:58;;;;;;;8.97;6.07;;;;;;;24.56;71.24;100206.00;5067860;28;20417;-72
2023/09/11 00:22:23;;;;;;;8.00;5.60;;;;;;;24.55;71.44;100205.19;5081402;28;20269;-72
2023/09/11 00:24:49;;;;;;;8.57;5.90;;;;;;;24.54;71.11;100206.41;5069619;28;20189;-73
2023/09/11 00:27:14;;;;;;;7.80;5.60;;;;;;;24.54;70.89;100203.53;5064318;28;20186;-73
2023/09/11 00:29:40;;;;;;;6.90;5.60;;;;;;;24.53;71.16;100199.00;5082640;28;20179;-73
2023/09/11 00:32:05;;;;;;;6.80;5.20;;;;;;;24.54;70.73;100191.97;5033180;28;20233;-74
2023/09/11 00:34:31;;;;;;;8.03;5.60;;;;;;;24.54;71.10;100186.22;5032563;28;20182;-73
2023/09/11 00:36:57;;;;;;;7.70;5.60;;;;;;;24.53;70.97;100190.34;5049425;28;20183;-73
2023/09/11 00:39:23;;;;;;;8.27;5.70;;;;;;;24.53;70.96;100196.13;5061796;28;20697;-73
2023/09/11 00:41:48;;;;;;;8.30;6.40;;;;;;;24.53;70.74;100196.13;5051591;28;20448;-74
2023/09/11 00:44:14;;;;;;;9.20;5.30;;;;;;;24.53;70.87;100196.13;5032609;28;20946;-73
2023/09/11 00:46:39;;;;;;;10.43;5.77;;;;;;;24.53;70.87;100201.91;5066495;28;20202;-73
2023/09/11 00:49:06;;;;;;;6.80;5.27;;;;;;;24.52;70.80;100200.25;5067010;28;20278;-73
2023/09/11 00:51:31;;;;;;;6.83;5.43;;;;;;;24.52;70.60;100191.59;5065865;28;20187;-73
2023/09/11 00:53:57;;;;;;;8.43;6.07;;;;;;;24.52;70.50;100187.88;5055793;28;20975;-73
2023/09/11 00:56:22;;;;;;;7.90;5.53;;;;;;;24.52;70.66;100190.75;5066124;28;20190;-74
2023/09/11 00:58:47;;;;;;;7.53;5.70;;;;;;;24.51;70.85;100189.97;5049025;28;20175;-72
2023/09/11 01:01:13;;;;;;;8.27;5.67;;;;;;;24.51;70.73;100187.06;5053051;28;20190;-73
2023/09/11 01:03:39;;;;;;;5.73;4.83;;;;;;;24.51;70.42;100187.06;5069699;28;20255;-72
2023/09/11 01:06:04;;;;;;;7.57;5.50;;;;;;;24.51;70.71;100187.06;5048254;28;20696;-74
2023/09/11 01:08:30;;;;;;;6.20;5.10;;;;;;;24.50;70.83;100187.50;5058514;28;20186;-73
2023/09/11 01:10:56;;;;;;;7.27;5.00;;;;;;;24.51;70.89;100189.13;5049909;28;20237;-74
2023/09/11 01:13:22;;;;;;;6.77;5.40;;;;;;;24.50;70.71;100188.31;5048811;28;20418;-73
2023/09/11 01:15:57;;;;;;;7.37;5.63;;;;;;;24.50;70.87;100184.59;5048841;28;20440;-72
2023/09/11 01:18:28;;;;;;;9.73;6.10;;;;;;;24.49;70.83;100201.09;5047799;28;20463;-73
2023/09/11 01:21:02;;;;;;;9.90;5.80;;;;;;;24.50;70.59;100188.31;5066813;28;20420;-73
2023/09/11 01:24:06;;;;;;;7.20;5.33;;;;;;;24.49;70.55;100192.44;5072239;28;20535;-73
2023/09/11 01:26:40;;;;;;;5.47;4.57;;;;;;;24.49;70.55;100195.31;5065144;28;20472;-73
2023/09/11 01:29:11;;;;;;;8.17;5.73;;;;;;;24.49;70.65;100188.75;5065707;28;20503;-73
2023/09/11 01:31:37;;;;;;;7.40;5.30;;;;;;;24.49;70.46;100182.97;5051528;28;20817;-73
2023/09/11 01:34:03;;;;;;;9.50;6.10;;;;;;;24.48;70.64;100178.44;5048357;28;20429;-73
2023/09/11 01:36:28;;;;;;;8.60;5.53;;;;;;;24.48;70.24;100181.34;5066239;28;20182;-73
2023/09/11 01:38:55;;;;;;;8.07;5.53;;;;;;;24.48;70.60;100176.38;5029844;28;20482;-73
2023/09/11 01:41:20;;;;;;;9.37;5.43;;;;;;;24.48;70.58;100182.13;5063701;28;20179;-73
2023/09/11 01:43:46;;;;;;;7.43;6.10;;;;;;;24.47;70.68;100171.84;5050368;28;20979;-72
2023/09/11 01:46:11;;;;;;;9.13;6.13;;;;;;;24.47;70.49;100171.00;5031679;28;20203;-73
2023/09/11 01:48:37;;;;;;;8.03;6.03;;;;;;;24.47;70.64;100180.50;5048326;28;20174;-73
2023/09/11 01:51:03;;;;;;;8.00;5.47;;;;;;;24.47;70.65;100186.28;5048654;28;20667;-73
2023/09/11 01:53:28;;;;;;;7.17;5.60;;;;;;;24.46;70.77;100178.03;5050966;28;20615;-73
2023/09/11 01:55:55;;;;;;;7.17;5.57;;;;;;;24.44;70.60;100178.47;5051926;28;20198;-73
2023/09/11 01:58:21;;;;;;;7.20;5.13;;;;;;;24.45;70.60;100180.13;5069023;28;20173;-72
2023/09/11 02:00:46;;;;;;;8.20;5.47;;;;;;;24.45;70.50;100188.78;5071481;28;21144;-73
2023/09/11 02:03:12;;;;;;;6.83;4.90;;;;;;;24.45;70.51;100185.91;5068857;28;20422;-72
2023/09/11 02:05:38;;;;;;;8.87;5.40;;;;;;;24.43;70.43;100185.47;5051504;28;20233;-73
2023/09/11 02:08:04;;;;;;;7.30;5.53;;;;;;;24.43;70.39;100188.38;5069787;28;20237;-72
2023/09/11 02:10:29;;;;;;;8.03;5.13;;;;;;;24.44;70.06;100177.66;5035164;28;20968;-73
2023/09/11 02:12:54;;;;;;;8.73;5.83;;;;;;;24.43;70.26;100179.72;5069807;28;20182;-73
2023/09/11 02:15:20;;;;;;;7.53;5.47;;;;;;;24.43;70.44;100176.81;5069149;28;20170;-72
2023/09/11 02:17:45;;;;;;;8.13;6.10;;;;;;;24.43;70.11;100176.00;5066577;28;20592;-73
2023/09/11 02:20:11;;;;;;;12.00;4.87;;;;;;;24.42;69.97;100175.19;5054278;28;20547;-73
2023/09/11 02:22:36;;;;;;;6.30;5.17;;;;;;;24.42;70.01;100186.72;5051748;28;20631;-73
2023/09/11 02:25:01;;;;;;;10.63;6.10;;;;;;;24.42;70.15;100185.91;5068878;28;20911;-72
2023/09/11 02:27:27;;;;;;;7.60;4.70;;;;;;;24.41;70.07;100187.97;5067137;28;20199;-72
2023/09/11 02:29:52;;;;;;;6.77;5.10;;;;;;;24.41;70.36;100185.09;5054736;28;20186;-73
2023/09/11 02:32:18;;;;;;;8.17;5.57;;;;;;;24.40;70.27;100183.47;5035158;28;20179;-72
2023/09/11 02:34:43;;;;;;;7.17;5.63;;;;;;;24.41;70.02;100187.16;5035693;28;20189;-72
2023/09/11 02:37:09;;;;;;;8.97;5.23;;;;;;;24.40;70.39;100192.13;5053137;28;20178;-73
2023/09/11 02:39:35;;;;;;;7.70;5.37;;;;;;;24.39;70.35;100187.56;5035281;28;20641;-73
2023/09/11 02:42:01;;;;;;;9.70;5.70;;;;;;;24.39;69.86;100184.69;5068673;28;20237;-74
2023/09/11 02:44:26;;;;;;;9.90;5.30;;;;;;;24.40;69.91;100188.41;5051802;28;20421;-72
2023/09/11 02:46:52;;;;;;;7.70;6.37;;;;;;;24.39;70.07;100184.69;5055373;28;20202;-72
2023/09/11 02:49:18;;;;;;;7.60;4.83;;;;;;;24.38;69.81;100182.25;5088725;28;20232;-73
2023/09/11 02:51:43;;;;;;;6.30;4.60;;;;;;;24.38;70.04;100168.63;5088548;28;20637;-72
2023/09/11 02:54:09;;;;;;;8.13;5.10;;;;;;;24.39;69.84;100178.09;5050136;28;20191;-72
2023/09/11 02:56:37;;;;;;;6.97;4.83;;;;;;;24.38;69.90;100174.38;5087595;28;20197;-72
2023/09/11 02:59:03;;;;;;;6.03;5.10;;;;;;;24.37;69.77;100169.88;5067806;28;20205;-72
2023/09/11 03:01:28;;;;;;;7.30;5.27;;;;;;;24.38;70.05;100177.28;5071266;28;20401;-72
2023/09/11 03:03:54;;;;;;;9.80;5.73;;;;;;;24.38;69.81;100171.50;5067957;28;20194;-73
2023/09/11 03:06:19;;;;;;;8.30;5.47;;;;;;;24.37;70.06;100181.41;5048965;28;20210;-72
2023/09/11 03:08:45;;;;;;;7.20;5.40;;;;;;;24.37;69.78;100175.63;5051058;28;20164;-73
2023/09/11 03:11:10;;;;;;;6.47;5.30;;;;;;;24.36;70.00;100176.88;5042956;28;20636;-72
2023/09/11 03:13:36;;;;;;;7.80;5.50;;;;;;;24.37;70.06;100174.81;5089362;28;20580;-72
2023/09/11 03:16:12;;;;;;;6.30;5.20;;;;;;;24.36;69.76;100178.94;5071139;28;20773;-74
2023/09/11 03:18:38;;;;;;;6.20;4.87;;;;;;;24.35;69.96;100172.38;5068091;28;20509;-73
2023/09/11 03:21:03;;;;;;;7.43;4.70;;;;;;;24.35;69.67;100178.13;5084390;28;20436;-72
2023/09/11 03:23:29;;;;;;;8.10;5.20;;;;;;;24.35;69.73;100165.75;5050907;28;20221;-72
2023/09/11 03:25:55;;;;;;;7.17;5.03;;;;;;;24.35;69.50;100177.31;5067686;28;20564;-72
2023/09/11 03:28:20;;;;;;;8.37;5.30;;;;;;;24.33;70.02;100177.72;5066806;28;20440;-72
2023/09/11 03:30:46;;;;;;;5.13;4.57;;;;;;;24.33;69.59;100179.81;5053108;28;20187;-73
2023/09/11 03:33:11;;;;;;;8.53;4.97;;;;;;;24.33;69.41;100166.19;5050747;28;20178;-72
2023/09/11 03:35:36;;;;;;;8.30;4.90;;;;;;;24.32;69.97;100167.44;5053047;28;20179;-73
2023/09/11 03:38:02;;;;;;;5.40;4.57;;;;;;;24.31;69.83;100171.56;5075756;28;20190;-74
2023/09/11 03:40:28;;;;;;;7.73;5.57;;;;;;;24.31;69.54;100160.03;5050338;28;20179;-72
2023/09/11 03:42:54;;;;;;;7.03;5.17;;;;;;;24.32;69.71;100170.31;5066954;28;20208;-72
2023/09/11 03:45:20;;;;;;;7.30;5.77;;;;;;;24.31;69.44;100160.03;5049662;28;21018;-73
2023/09/11 03:47:45;;;;;;;5.30;4.40;;;;;;;24.32;69.35;100166.59;5067176;28;20193;-72
2023/09/11 03:50:11;;;;;;;12.17;5.60;;;;;;;24.31;69.47;100162.91;5062712;28;20406;-73
2023/09/11 03:52:36;;;;;;;6.03;5.03;;;;;;;24.31;69.34;100162.91;5050624;28;20224;-72
2023/09/11 03:55:03;;;;;;;6.37;4.77;;;;;;;24.30;69.57;100161.28;5052266;28;20209;-74
2023/09/11 03:57:28;;;;;;;10.33;5.30;;;;;;;24.30;69.17;100161.28;5053215;28;20189;-73
2023/09/11 03:59:54;;;;;;;9.30;5.57;;;;;;;24.30;69.67;100157.56;5070010;28;20416;-73
2023/09/11 04:02:19;;;;;;;6.17;5.00;;;;;;;24.29;69.48;100165.38;5029045;28;20191;-72
2023/09/11 04:04:45;;;;;;;5.60;4.73;;;;;;;24.29;69.09;100150.94;5065354;28;20187;-72
2023/09/11 04:07:10;;;;;;;6.80;4.50;;;;;;;24.29;69.56;100164.56;5066370;28;20209;-73
2023/09/11 04:09:35;;;;;;;7.83;5.53;;;;;;;24.28;69.24;100166.63;5048952;28;20276;-73
2023/09/11 04:12:02;;;;;;;5.77;4.73;;;;;;;24.28;69.59;100162.94;5067632;28;20179;-72
2023/09/11 04:14:27;;;;;;;5.87;4.90;;;;;;;24.27;69.26;100165.00;5033512;28;20175;-72
2023/09/11 04:16:53;;;;;;;8.33;5.00;;;;;;;24.26;69.23;100163.34;5050266;28;20820;-72
2023/09/11 04:19:18;;;;;;;6.27;4.90;;;;;;;24.27;69.39;100165.00;5048969;28;20191;-72
2023/09/11 04:21:44;;;;;;;6.50;5.00;;;;;;;24.26;69.33;100166.25;5051652;28;20182;-72
2023/09/11 04:24:12;;;;;;;7.33;5.43;;;;;;;24.26;69.42;100165.41;5049489;28;20186;-73
2023/09/11 04:26:41;;;;;;;8.00;5.03;;;;;;;24.27;69.07;100164.16;5066245;28;20195;-72
2023/09/11 04:29:10;;;;;;;5.93;5.10;;;;;;;24.26;69.22;100163.34;5049970;28;20410;-72
2023/09/11 04:31:36;;;;;;;8.47;4.87;;;;;;;24.25;69.01;100155.94;5068626;28;20433;-73
2023/09/11 04:34:01;;;;;;;8.60;5.27;;;;;;;24.25;69.02;100161.72;5066614;28;20545;-72
2023/09/11 04:36:27;;;;;;;5.60;4.70;;;;;;;24.25;69.15;100167.50;5065633;28;20179;-73
2023/09/11 04:38:53;;;;;;;8.97;4.80;;;;;;;24.25;69.10;100167.50;5068090;28;20189;-72
2023/09/11 04:41:18;;;;;;;7.63;5.10;;;;;;;24.25;68.97;100155.94;5067122;28;20190;-74
2023/09/11 04:43:44;;;;;;;6.10;4.43;;;;;;;24.24;69.29;100157.16;5051683;28;20649;-72
2023/09/11 04:46:10;;;;;;;7.60;5.00;;;;;;;24.24;68.71;100157.16;5032391;28;21036;-72
2023/09/11 04:48:36;;;;;;;6.10;4.80;;;;;;;24.24;68.96;100157.16;5048802;28;20405;-73
2023/09/11 04:51:01;;;;;;;6.70;4.87;;;;;;;24.24;68.88;100154.28;5050727;28;20265;-72
2023/09/11 04:53:27;;;;;;;6.80;4.90;;;;;;;24.24;68.92;100165.03;5049158;28;20666;-73
2023/09/11 04:55:52;;;;;;;6.40;4.80;;;;;;;24.24;69.00;100162.13;5032733;28;20182;-72
2023/09/11 04:58:17;;;;;;;6.47;4.90;;;;;;;24.23;69.04;100158.41;5063558;28;20217;-72
2023/09/11 05:00:43;;;;;;;6.80;5.40;;;;;;;24.22;68.97;100162.56;5064143;28;20646;-73
2023/09/11 05:03:08;;;;;;;7.83;5.47;;;;;;;24.22;68.72;100159.66;5028758;28;20175;-73
2023/09/11 05:05:40;;;;;;;5.87;4.90;;;;;;;24.22;68.84;100165.44;5026638;28;20208;-73
2023/09/11 05:08:06;;;;;;;6.27;5.03;;;;;;;24.21;68.77;100163.81;5048173;28;20713;-72
2023/09/11 05:10:32;;;;;;;6.83;5.33;;;;;;;24.21;68.93;100165.84;5048822;28;20465;-74
2023/09/11 05:12:57;;;;;;;7.13;4.67;;;;;;;24.20;69.04;100164.22;5065558;28;20586;-72
2023/09/11 05:15:23;;;;;;;6.43;4.83;;;;;;;24.20;68.92;100167.94;5048447;28;20171;-72
2023/09/11 05:17:49;;;;;;;13.70;6.10;;;;;;;24.20;68.94;100164.22;5051121;28;20252;-72
2023/09/11 05:20:15;;;;;;;8.30;4.40;;;;;;;24.19;68.53;100163.38;5065490;28;20250;-73
2023/09/11 05:22:40;;;;;;;6.40;4.93;;;;;;;24.19;68.97;100172.03;5047472;28;20468;-72
2023/09/11 05:25:06;;;;;;;5.57;4.60;;;;;;;24.18;69.12;100164.63;5045073;28;20596;-73
2023/09/11 05:27:32;;;;;;;6.60;5.13;;;;;;;24.18;68.63;100164.63;5049033;28;20183;-74
2023/09/11 05:29:57;;;;;;;7.43;5.23;;;;;;;24.18;68.49;100173.28;5068176;28;20638;-72
2023/09/11 05:32:23;;;;;;;5.43;4.50;;;;;;;24.17;69.07;100165.88;5051882;28;20804;-72
2023/09/11 05:34:49;;;;;;;6.87;4.80;;;;;;;24.17;68.58;100171.66;5035191;28;20607;-72
2023/09/11 05:37:14;;;;;;;5.77;4.43;;;;;;;24.16;68.58;100161.38;5054410;28;20201;-72
2023/09/11 05:39:40;;;;;;;7.20;4.80;;;;;;;24.16;68.80;100164.25;5048405;28;20275;-72
2023/09/11 05:42:05;;;;;;;6.90;5.50;;;;;;;24.17;68.69;100165.06;5048300;28;20155;-73
2023/09/11 05:44:31;;;;;;;7.80;5.60;;;;;;;24.16;68.43;100164.25;5065444;28;20170;-73
2023/09/11 05:46:56;;;;;;;5.90;4.70;;;;;;;24.16;68.65;100164.25;5049642;28;20202;-73
2023/09/11 05:49:22;;;;;;;8.47;4.70;;;;;;;24.16;68.11;100167.13;5047573;28;20170;-72
2023/09/11 05:51:48;;;;;;;5.50;4.77;;;;;;;24.17;68.35;100179.47;5031533;28;20174;-72
2023/09/11 05:54:13;;;;;;;8.27;5.33;;;;;;;24.16;68.50;100177.84;5046836;28;20178;-72
2023/09/11 05:56:39;;;;;;;7.43;5.17;;;;;;;24.16;68.38;100181.56;5033737;28;20187;-72
2023/09/11 05:59:04;;;;;;;7.80;5.00;;;;;;;24.15;68.40;100184.88;5064672;28;20163;-72
2023/09/11 06:01:29;;;;;;;6.40;4.80;;;;;;;24.15;68.48;100184.88;5055093;28;20198;-72
2023/09/11 06:03:55;;;;;;;6.40;5.23;;;;;;;24.14;68.64;100184.03;5058856;28;20179;-73
2023/09/11 06:06:20;;;;;;;7.97;5.57;;;;;;;24.14;68.17;100178.25;5047894;28;20183;-72
2023/09/11 06:08:46;;;;;;;7.00;4.70;;;;;;;24.14;68.21;100184.03;5033784;28;20191;-72
2023/09/11 06:11:11;;;;;;;7.37;5.00;;;;;;;24.15;68.23;100185.69;5037071;28;20237;-72
2023/09/11 06:13:37;;;;;;;6.20;5.60;;;;;;;24.14;68.08;100181.16;5048437;28;20179;-72
2023/09/11 06:16:02;;;;;;;9.23;5.13;;;;;;;24.16;68.07;100180.72;5049952;28;20174;-73
2023/09/11 06:18:28;;;;;;;6.63;5.50;;;;;;;24.15;68.25;100184.88;5031546;28;20266;-72
2023/09/11 06:20:53;;;;;;;7.30;5.10;;;;;;;24.14;68.00;100178.25;5044331;28;20183;-72
2023/09/11 06:23:19;;;;;;;6.37;5.40;;;;;;;24.15;68.09;100179.09;5042233;28;20190;-72
2023/09/11 06:25:44;;;;;;;7.30;5.50;;;;;;;24.14;68.21;100184.03;5048916;28;20199;-72
2023/09/11 06:28:09;;;;;;;7.50;5.80;;;;;;;24.14;67.89;100181.16;5047963;28;20198;-72
2023/09/11 06:30:35;;;;;;;6.40;4.90;;;;;;;24.14;68.06;100178.25;5044967;28;20259;-72
2023/09/11 06:33:01;;;;;;;7.10;5.10;;;;;;;24.15;68.12;100185.69;5067112;28;20187;-72
2023/09/11 06:35:26;;;;;;;9.27;5.30;;;;;;;24.14;68.26;100183.22;5064870;28;20211;-73
2023/09/11 06:37:51;;;;;;;6.97;5.03;;;;;;;24.14;68.22;100189.81;5064321;28;20212;-72
2023/09/11 06:40:17;;;;;;;7.60;5.67;;;;;;;24.14;68.32;100183.22;5066851;28;20229;-72
2023/09/11 06:42:42;;;;;;;6.30;5.27;;;;;;;24.13;67.92;100185.28;5071006;28;20955;-72
2023/09/11 06:45:08;;;;;;;6.93;5.07;;;;;;;24.14;68.21;100189.81;5049915;28;20573;-73
2023/09/11 06:47:33;;;;;;;8.37;5.60;;;;;;;24.14;68.10;100189.81;5048023;28;20670;-73
2023/09/11 06:49:59;;;;;;;7.53;5.00;;;;;;;24.14;68.46;100184.03;5030920;28;20183;-74
2023/09/11 06:52:25;;;;;;;8.20;5.27;;;;;;;24.13;68.41;100182.41;5071055;28;20202;-72
2023/09/11 06:54:50;;;;;;;8.27;5.50;;;;;;;24.13;68.23;100179.50;5051454;28;20217;-72
2023/09/11 06:57:15;;;;;;;8.33;5.47;;;;;;;24.13;68.43;100188.16;5052455;28;21001;-72
2023/09/11 06:59:41;;;;;;;6.60;4.83;;;;;;;24.13;68.47;100182.41;5051093;28;20217;-72
2023/09/11 07:02:08;;;;;;;6.33;5.40;;;;;;;24.14;68.30;100186.13;5052905;28;20187;-72
2023/09/11 07:04:33;;;;;;;7.40;5.23;;;;;;;24.14;68.34;100186.91;5048197;28;20571;-73
2023/09/11 07:06:59;;;;;;;8.43;5.10;;;;;;;24.14;68.63;100189.00;5031061;28;20457;-73
2023/09/11 07:09:24;;;;;;;11.20;5.80;;;;;;;24.14;68.56;100189.81;5061613;28;20207;-73
2023/09/11 07:11:50;;;;;;;8.40;5.70;;;;;;;24.13;68.74;100193.94;5050328;28;20235;-73
2023/09/11 07:14:19;;;;;;;6.37;4.87;;;;;;;24.14;68.64;100201.34;5053088;28;20194;-72
2023/09/11 07:16:45;;;;;;;7.93;4.93;;;;;;;24.13;68.53;100196.81;5034043;28;20179;-73
2023/09/11 07:19:10;;;;;;;9.23;5.33;;;;;;;24.14;68.64;100201.34;5049974;28;20428;-73
2023/09/11 07:21:36;;;;;;;7.60;5.30;;;;;;;24.13;68.84;100202.59;5086484;28;20182;-73
2023/09/11 07:24:01;;;;;;;6.77;5.10;;;;;;;24.14;69.11;100197.66;5088162;28;20159;-73
2023/09/11 07:26:27;;;;;;;7.17;5.17;;;;;;;24.13;68.64;100198.91;5040755;28;20574;-73
2023/09/11 07:28:53;;;;;;;7.70;5.83;;;;;;;24.14;68.92;100206.31;5033877;28;20927;-73
2023/09/11 07:31:18;;;;;;;10.33;5.77;;;;;;;24.13;69.34;100198.91;5048975;28;20195;-72
2023/09/11 07:33:44;;;;;;;9.07;6.00;;;;;;;24.13;68.77;100185.28;5062906;28;20437;-73
2023/09/11 07:36:09;;;;;;;8.70;5.47;;;;;;;24.10;68.88;100194.78;5026496;28;20210;-72
2023/09/11 07:38:35;;;;;;;14.70;5.90;;;;;;;24.11;69.53;100207.13;5036309;28;20258;-73
2023/09/11 07:41:00;;;;;;;12.57;6.63;;;;;;;24.11;69.47;100189.81;5026837;28;20551;-72
2023/09/11 07:43:25;;;;;;;9.70;6.03;;;;;;;24.11;69.41;100193.53;5050374;28;21453;-73
2023/09/11 07:45:51;;;;;;;13.37;5.67;;;;;;;24.12;69.46;100194.34;5039946;28;21174;-72
2023/09/11 07:48:17;;;;;;;7.00;5.27;;;;;;;24.12;69.10;100197.22;5033221;28;20191;-72
2023/09/11 07:50:42;;;;;;;9.83;6.00;;;;;;;24.13;68.85;100202.59;5034876;28;20186;-72
2023/09/11 07:53:07;;;;;;;6.50;5.10;;;;;;;24.13;68.85;100204.66;5044539;28;20225;-72
2023/09/11 07:55:37;;;;;;;7.87;5.10;;;;;;;24.14;69.12;100195.56;5047588;28;20184;-73
2023/09/11 07:58:02;;;;;;;8.53;6.00;;;;;;;24.15;69.03;100199.28;5055519;28;20742;-73
2023/09/11 08:00:30;;;;;;;8.23;5.10;;;;;;;24.15;69.15;100196.41;5038463;28;20442;-72
2023/09/11 08:02:56;;;;;;;9.60;5.53;;;;;;;24.15;69.23;100200.13;5049213;28;20698;-73
2023/09/11 08:05:22;;;;;;;9.70;4.87;;;;;;;24.15;69.51;100207.94;5032774;28;20460;-72
2023/09/11 08:07:47;;;;;;;16.27;6.40;;;;;;;24.15;69.75;100203.00;5069687;28;20533;-72
2023/09/11 08:10:14;;;;;;;8.37;5.50;;;;;;;24.15;69.85;100202.16;5048562;28;20744;-72
2023/09/11 08:12:39;;;;;;;9.93;5.87;;;;;;;24.15;69.80;100197.25;5051127;28;20670;-73
2023/09/11 08:15:05;;;;;;;10.43;6.23;;;;;;;24.14;69.36;100201.34;5049850;28;20459;-73
2023/09/11 08:17:31;;;;;;;10.60;5.33;;;;;;;24.15;69.69;100190.63;5049927;28;20174;-72
2023/09/11 08:19:57;;;;;;;7.60;5.50;;;;;;;24.16;69.74;100198.03;5066045;28;20437;-73
2023/09/11 08:22:22;;;;;;;6.33;5.20;;;;;;;24.15;70.04;100200.13;5050937;28;20191;-73
2023/09/11 08:24:48;;;;;;;7.00;5.57;;;;;;;24.15;69.76;100196.41;5049822;28;20194;-72
2023/09/11 08:27:13;;;;;;;11.03;5.03;;;;;;;24.16;69.83;100206.69;5046556;28;20210;-74
2023/09/11 08:29:38;;;;;;;6.70;5.57;;;;;;;24.15;69.80;100196.41;5067443;28;20186;-72
2023/09/11 08:32:04;;;;;;;8.80;5.80;;;;;;;24.14;70.06;100189.00;5042017;28;20187;-73
2023/09/11 08:34:30;;;;;;;7.70;5.63;;;;;;;24.15;69.70;100203.00;5029771;28;20183;-70
2023/09/11 08:36:55;;;;;;;9.80;5.97;;;;;;;24.15;69.69;100200.13;5049326;28;20190;-72
2023/09/11 08:39:20;;;;;;;13.33;6.00;;;;;;;24.13;70.33;100202.59;5047940;28;20179;-73
2023/09/11 08:41:46;;;;;;;8.90;5.77;;;;;;;24.13;70.05;100205.47;5048809;28;20222;-72
2023/09/11 08:44:11;;;;;;;12.33;6.07;;;;;;;24.15;70.71;100200.13;5049241;28;20500;-73
2023/09/11 08:46:37;;;;;;;10.03;6.10;;;;;;;24.15;70.15;100196.41;5067739;28;20218;-72
2023/09/11 08:49:03;;;;;;;12.67;6.03;;;;;;;24.15;69.90;100200.13;5049386;28;20228;-74
2023/09/11 08:51:32;;;;;;;7.07;5.50;;;;;;;24.16;70.01;100201.75;5065476;28;20170;-72
2023/09/11 08:53:58;;;;;;;17.27;6.87;;;;;;;24.16;70.37;100198.88;5032882;28;20170;-73
2023/09/11 08:56:24;;;;;;;8.20;6.27;;;;;;;24.16;70.32;100193.09;5051199;28;20437;-72
2023/09/11 08:58:50;;;;;;;7.27;5.53;;;;;;;24.17;70.01;100193.91;5049125;28;20486;-72
2023/09/11 09:01:15;;;;;;;12.50;6.33;;;;;;;24.16;69.95;100190.22;5048984;28;20270;-73
2023/09/11 09:03:41;;;;;;;7.40;5.60;;;;;;;24.17;70.16;100194.75;5048772;28;20402;-72
2023/09/11 09:06:07;;;;;;;9.03;5.80;;;;;;;24.16;70.10;100187.34;5047815;28;20582;-73
2023/09/11 09:08:32;;;;;;;9.80;6.37;;;;;;;24.17;70.21;100185.25;5016861;28;20175;-74
2023/09/11 09:10:58;;;;;;;8.80;5.70;;;;;;;24.18;70.30;100189.81;5046885;28;20708;-72
2023/09/11 09:13:24;;;;;;;11.70;6.40;;;;;;;24.17;70.20;100179.47;5065070;28;20178;-72
2023/09/11 09:15:50;;;;;;;11.23;6.00;;;;;;;24.17;70.61;100177.44;5049179;28;20417;-73
2023/09/11 09:18:15;;;;;;;9.20;6.93;;;;;;;24.18;70.65;100184.03;5050340;28;20183;-72
2023/09/11 09:20:40;;;;;;;9.00;6.50;;;;;;;24.18;70.72;100187.72;5065157;28;20207;-72
2023/09/11 09:23:06;;;;;;;7.73;5.80;;;;;;;24.18;70.77;100187.72;5045439;28;20186;-73
2023/09/11 09:25:31;;;;;;;8.50;6.27;;;;;;;24.19;70.75;100182.78;5030248;28;20183;-72
2023/09/11 09:27:57;;;;;;;12.00;6.70;;;;;;;24.20;70.45;100188.13;5030104;28;20261;-73
2023/09/11 09:30:30;;;;;;;10.33;7.17;;;;;;;24.20;70.96;100184.41;5047362;28;20636;-72
2023/09/11 09:32:56;;;;;;;9.57;6.37;;;;;;;24.19;70.63;100182.78;5067224;28;20187;-73
2023/09/11 09:35:25;;;;;;;12.67;6.07;;;;;;;24.20;70.66;100182.38;5048423;28;20405;-73
2023/09/11 09:37:51;;;;;;;12.50;6.57;;;;;;;24.20;70.33;100167.94;5048550;28;20265;-73
2023/09/11 09:40:38;;;;;;;10.37;6.30;;;;;;;24.21;70.83;100166.69;5051266;28;20970;-72
2023/09/11 09:43:08;;;;;;;13.47;7.10;;;;;;;24.20;70.26;100156.41;5068430;28;20412;-73
2023/09/11 09:45:33;;;;;;;9.10;6.43;;;;;;;24.20;70.71;100162.16;5052042;28;20417;-73
2023/09/11 09:48:10;;;;;;;9.90;6.50;;;;;;;24.21;70.33;100163.81;5085796;28;20779;-73
2023/09/11 09:50:47;;;;;;;9.40;6.53;;;;;;;24.23;70.47;100155.53;5052362;28;20192;-73
2023/09/11 09:53:22;;;;;;;8.70;6.37;;;;;;;24.22;70.92;100150.19;5066175;28;20506;-74
2023/09/11 09:55:48;;;;;;;11.67;6.50;;;;;;;24.22;70.38;100142.34;5049753;28;20450;-72
2023/09/11 09:58:13;;;;;;;13.40;6.73;;;;;;;24.23;70.51;100146.06;5064198;28;20428;-73
2023/09/11 10:00:38;;;;;;;10.20;6.50;;;;;;;24.22;70.40;100133.69;5048002;28;20183;-73
2023/09/11 10:03:04;;;;;;;10.87;6.77;;;;;;;24.24;70.65;100136.97;5047596;28;20163;-73
2023/09/11 10:05:29;;;;;;;9.57;7.03;;;;;;;24.24;70.60;100134.09;5062633;28;20190;-73
2023/09/11 10:07:59;;;;;;;10.20;7.37;;;;;;;24.25;70.46;100134.91;5067702;28;20542;-72
2023/09/11 10:10:26;;;;;;;8.07;6.63;;;;;;;24.24;70.58;100130.41;5056045;28;20285;-73
2023/09/11 10:13:00;;;;;;;9.60;6.23;;;;;;;24.24;70.48;100128.31;5052196;28;20455;-72
2023/09/11 10:15:26;;;;;;;10.97;6.07;;;;;;;24.24;70.66;100128.31;5068744;28;21257;-72
2023/09/11 10:17:54;;;;;;;10.50;6.97;;;;;;;24.24;71.36;100124.63;5051714;28;20417;-73
2023/09/11 10:20:21;;;;;;;10.50;6.93;;;;;;;24.24;70.91;100118.88;5055905;28;20194;-72
2023/09/11 10:22:46;;;;;;;8.90;6.50;;;;;;;24.24;71.06;100118.88;5047377;28;20430;-72
2023/09/11 10:25:12;;;;;;;8.47;6.27;;;;;;;24.23;71.18;100118.03;5050040;28;20446;-73
2023/09/11 10:27:37;;;;;;;7.20;6.00;;;;;;;24.24;71.83;100121.75;5049394;28;20204;-73
2023/09/11 10:30:04;;;;;;;7.80;6.17;;;;;;;24.24;71.46;100113.09;5033111;28;20186;-73
2023/09/11 10:32:36;;;;;;;9.40;6.67;;;;;;;24.24;71.02;100113.88;5030165;28;20187;-73
2023/09/11 10:35:01;;;;;;;12.60;6.77;;;;;;;24.24;71.27;100118.88;5031370;28;20445;-74
2023/09/11 10:37:27;;;;;;;9.10;6.70;;;;;;;24.24;71.41;100104.44;5046752;28;20913;-72
2023/09/11 10:39:52;;;;;;;9.87;6.47;;;;;;;24.23;71.53;100103.59;5046966;28;20179;-73
2023/09/11 10:42:17;;;;;;;8.80;6.40;;;;;;;24.22;71.37;100093.31;5036793;28;20245;-73
2023/09/11 10:44:43;;;;;;;9.07;6.27;;;;;;;24.23;71.21;100094.94;5051304;28;20196;-72
2023/09/11 10:47:11;;;;;;;6.93;6.23;;;;;;;24.23;70.89;100094.16;5019956;28;20199;-73
2023/09/11 10:49:37;;;;;;;9.57;6.27;;;;;;;24.24;71.14;100096.56;5034751;28;20633;-73
2023/09/11 10:52:07;;;;;;;9.40;6.73;;;;;;;24.23;71.11;100100.72;5047359;28;20429;-73
2023/09/11 10:54:32;;;;;;;7.90;6.23;;;;;;;24.24;71.12;100090.81;5049680;28;20441;-73
2023/09/11 10:56:58;;;;;;;10.10;6.93;;;;;;;24.25;71.44;100095.34;5051376;28;20425;-73
2023/09/11 10:59:23;;;;;;;9.60;6.43;;;;;;;24.24;71.08;100090.81;5047676;28;20195;-73
2023/09/11 11:01:49;;;;;;;7.73;6.00;;;;;;;24.25;71.69;100082.97;5050203;28;20183;-72
2023/09/11 11:04:15;;;;;;;9.57;6.80;;;;;;;24.25;71.50;100078.03;5031022;28;20188;-73
2023/09/11 11:06:45;;;;;;;9.07;6.60;;;;;;;24.26;71.89;100081.72;5047336;28;20206;-72
2023/09/11 11:09:31;;;;;;;10.90;6.40;;;;;;;24.25;71.17;100077.22;5042953;28;20487;-73
2023/09/11 11:12:08;;;;;;;8.40;6.47;;;;;;;24.25;71.24;100065.66;5051115;28;20928;-73
2023/09/11 11:14:34;;;;;;;8.53;6.60;;;;;;;24.25;71.22;100063.63;5051675;28;20444;-72
2023/09/11 11:17:00;;;;;;;7.90;6.50;;;;;;;24.26;71.72;100073.91;5071048;28;20445;-72
2023/09/11 11:19:33;;;;;;;11.57;6.97;;;;;;;24.26;71.48;100061.53;5057512;28;20183;-73